Time;durP1;ratioP1;P1;durP2;ratioP2;P2;SDS_P1;SDS_P2;PMS_P1;PMS_P2;Temp;Humidity;BMP_temperature;BMP_pressure;BME280_temperature;BME280_humidity;BME280_pressure;Samples;Min_cycle;Max_cycle;Signal;HPM_P1;HPM_P2
2024/01/09 00:01:29;;;;;;;22.70;21.27;;;;;;;-2.34;100.00;104029.88;5012339;28;20501;-36
2024/01/09 00:03:58;;;;;;;22.20;20.77;;;;;;;-2.40;100.00;104019.53;5012046;28;20451;-36
2024/01/09 00:06:26;;;;;;;22.10;20.67;;;;;;;-2.45;100.00;104016.19;5013314;28;20433;-36
2024/01/09 00:08:54;;;;;;;22.60;21.40;;;;;;;-2.51;100.00;104016.31;5006576;28;20548;-36
2024/01/09 00:11:21;;;;;;;24.07;22.57;;;;;;;-2.55;100.00;104014.66;5014285;28;20429;-39
2024/01/09 00:13:49;;;;;;;21.67;20.47;;;;;;;-2.64;100.00;104017.44;5004482;28;20437;-36
2024/01/09 00:16:17;;;;;;;22.40;21.10;;;;;;;-2.68;100.00;104013.16;5002468;28;20433;-36
2024/01/09 00:18:44;;;;;;;23.07;21.60;;;;;;;-2.76;100.00;104013.34;5014319;28;20469;-37
2024/01/09 00:21:14;;;;;;;22.50;21.30;;;;;;;-2.73;100.00;104007.19;5009674;28;20571;-37
2024/01/09 00:23:42;;;;;;;22.30;21.10;;;;;;;-2.76;100.00;104002.91;5005480;28;20461;-36
2024/01/09 00:26:09;;;;;;;23.43;21.77;;;;;;;-2.84;100.00;104002.19;5007211;28;20436;-36
2024/01/09 00:28:37;;;;;;;22.10;21.00;;;;;;;-2.84;100.00;104007.44;5011565;28;20461;-36
2024/01/09 00:31:05;;;;;;;21.70;20.60;;;;;;;-2.86;100.00;104007.44;5013233;28;20536;-37
2024/01/09 00:33:33;;;;;;;22.87;21.63;;;;;;;-2.89;100.00;104006.63;5012171;28;20437;-39
2024/01/09 00:36:03;;;;;;;23.50;22.00;;;;;;;-2.94;100.00;104006.75;5011417;28;20437;-36
2024/01/09 00:38:32;;;;;;;25.00;23.70;;;;;;;-2.97;100.00;104003.31;5013083;28;20480;-37
2024/01/09 00:41:00;;;;;;;24.70;23.30;;;;;;;-3.02;100.00;104002.56;5011597;28;20505;-36
2024/01/09 00:43:28;;;;;;;23.30;22.10;;;;;;;-3.06;100.00;104008.72;5016542;28;20487;-36
2024/01/09 00:45:55;;;;;;;23.57;22.27;;;;;;;-3.08;100.00;104007.91;5015770;28;20541;-39
2024/01/09 00:48:23;;;;;;;23.33;22.13;;;;;;;-3.07;100.00;104010.47;5010306;28;20489;-37
2024/01/09 00:50:51;;;;;;;24.47;23.17;;;;;;;-3.09;100.00;104007.03;5012378;28;20433;-37
2024/01/09 00:53:19;;;;;;;24.57;23.17;;;;;;;-3.10;100.00;104007.06;5011743;28;21128;-36
2024/01/09 00:55:48;;;;;;;23.77;22.47;;;;;;;-3.05;100.00;104008.72;5006640;28;20444;-36
2024/01/09 00:58:16;;;;;;;24.70;22.73;;;;;;;-2.95;100.00;104015.47;5004665;28;20587;-36
2024/01/09 01:00:43;;;;;;;23.63;22.33;;;;;;;-2.92;100.00;104019.75;5011681;28;20892;-37
2024/01/09 01:03:11;;;;;;;22.17;20.77;;;;;;;-2.89;100.00;104014.47;5015211;28;20437;-36
2024/01/09 01:05:39;;;;;;;23.13;21.73;;;;;;;-2.86;100.00;104010.06;5002198;28;20433;-36
2024/01/09 01:08:07;;;;;;;23.90;22.37;;;;;;;-2.85;100.00;104011.78;5011153;28;20461;-37
2024/01/09 01:10:35;;;;;;;23.37;21.83;;;;;;;-2.79;100.00;104021.25;5013364;28;20809;-36
2024/01/09 01:13:04;;;;;;;22.50;21.20;;;;;;;-2.78;100.00;104015.97;5009924;28;20443;-38
2024/01/09 01:15:32;;;;;;;23.50;22.10;;;;;;;-2.75;100.00;104009.84;5003202;28;20905;-36
2024/01/09 01:18:00;;;;;;;22.27;20.93;;;;;;;-2.71;100.00;104005.41;5009708;28;20492;-36
2024/01/09 01:20:28;;;;;;;22.80;21.70;;;;;;;-2.73;100.00;103997.63;5005055;28;20432;-37
2024/01/09 01:22:56;;;;;;;22.80;21.43;;;;;;;-2.71;100.00;103998.44;5012453;28;21071;-36
2024/01/09 01:25:24;;;;;;;22.27;21.23;;;;;;;-2.74;100.00;103995.88;5012976;28;20437;-37
2024/01/09 01:27:52;;;;;;;22.77;21.67;;;;;;;-2.79;100.00;103992.50;5011050;28;21035;-39
2024/01/09 01:30:21;;;;;;;23.10;22.03;;;;;;;-2.85;100.00;103990.91;5010806;28;20464;-36
2024/01/09 01:32:49;;;;;;;22.73;21.53;;;;;;;-2.89;100.00;103984.00;5008967;28;20514;-38
2024/01/09 01:35:17;;;;;;;24.03;22.70;;;;;;;-2.93;100.00;103991.94;5012458;28;20440;-36
2024/01/09 01:37:44;;;;;;;23.80;22.40;;;;;;;-2.98;100.00;103983.31;5010395;28;20472;-38
2024/01/09 01:40:13;;;;;;;29.83;27.50;;;;;;;-3.01;100.00;103993.81;5010861;28;20502;-36
2024/01/09 01:42:41;;;;;;;26.90;25.10;;;;;;;-3.05;100.00;103984.34;5013321;28;20558;-36
2024/01/09 01:45:15;;;;;;;35.23;32.13;;;;;;;-3.10;100.00;103994.00;5010772;28;20994;-37
2024/01/09 01:47:46;;;;;;;26.20;24.30;;;;;;;-3.12;100.00;103995.78;5013329;28;20586;-36
2024/01/09 01:50:15;;;;;;;26.13;24.47;;;;;;;-3.16;100.00;103996.72;5009184;28;20441;-36
2024/01/09 01:52:44;;;;;;;23.27;22.03;;;;;;;-3.21;100.00;103995.97;5013869;28;20428;-37
2024/01/09 01:55:13;;;;;;;25.00;23.50;;;;;;;-3.24;100.00;103993.41;5009660;28;20468;-36
2024/01/09 01:57:43;;;;;;;23.23;22.03;;;;;;;-3.28;100.00;103990.00;5017298;28;20508;-38
2024/01/09 02:00:12;;;;;;;24.67;22.70;;;;;;;-3.30;100.00;103985.69;5017349;28;20436;-36
2024/01/09 02:02:40;;;;;;;23.43;22.23;;;;;;;-3.31;100.00;103990.06;5012803;28;20544;-36
2024/01/09 02:05:10;;;;;;;24.43;23.10;;;;;;;-3.34;100.00;103995.31;5018249;28;20487;-36
2024/01/09 02:07:40;;;;;;;23.20;22.07;;;;;;;-3.38;100.00;103989.34;5012720;28;20485;-37
2024/01/09 02:10:08;;;;;;;24.20;22.77;;;;;;;-3.40;100.00;103996.31;5007053;28;20440;-36
2024/01/09 02:12:36;;;;;;;24.30;22.90;;;;;;;-3.42;100.00;103992.00;5017965;28;20520;-36
2024/01/09 02:15:04;;;;;;;23.70;22.50;;;;;;;-3.46;100.00;103985.09;5012470;28;20429;-36
2024/01/09 02:17:33;;;;;;;25.90;24.10;;;;;;;-3.47;100.00;103986.88;5018155;28;20452;-36
2024/01/09 02:20:00;;;;;;;24.00;22.30;;;;;;;-3.50;100.00;103989.56;5013873;28;20440;-37
2024/01/09 02:22:30;;;;;;;24.27;22.60;;;;;;;-3.55;100.00;103995.72;5017590;28;20571;-36
2024/01/09 02:24:58;;;;;;;25.60;24.13;;;;;;;-3.51;100.00;103992.16;5014890;28;20533;-36
2024/01/09 02:27:34;;;;;;;24.73;23.30;;;;;;;-3.53;100.00;103993.97;5013045;28;20463;-36
2024/01/09 02:30:05;;;;;;;23.70;22.47;;;;;;;-3.48;100.00;103986.91;5018125;28;20432;-36
2024/01/09 02:32:34;;;;;;;25.83;24.13;;;;;;;-3.45;100.00;103989.44;5014864;28;20433;-36
2024/01/09 02:35:02;;;;;;;24.47;23.17;;;;;;;-3.48;100.00;103979.94;5017619;28;20448;-36
2024/01/09 02:37:30;;;;;;;26.13;24.27;;;;;;;-3.47;100.00;103988.63;5017358;28;20491;-36
2024/01/09 02:39:58;;;;;;;23.63;22.10;;;;;;;-3.51;100.00;103990.44;5013737;28;20835;-37
2024/01/09 02:42:26;;;;;;;24.67;21.93;;;;;;;-3.54;100.00;103989.63;5012800;28;20503;-36
2024/01/09 02:44:54;;;;;;;22.80;21.60;;;;;;;-3.54;100.00;103987.88;5014060;28;20436;-36
2024/01/09 02:47:24;;;;;;;23.13;21.93;;;;;;;-3.55;100.00;103980.91;5008316;28;20921;-36
2024/01/09 02:49:52;;;;;;;22.73;21.43;;;;;;;-3.56;100.00;103983.56;5017905;28;20433;-37
2024/01/09 02:52:19;;;;;;;23.60;22.23;;;;;;;-3.63;100.00;103990.63;5017267;28;21003;-36
2024/01/09 02:54:47;;;;;;;23.17;21.77;;;;;;;-3.65;100.00;103984.59;5005229;28;20487;-36
2024/01/09 02:57:15;;;;;;;23.70;22.37;;;;;;;-3.62;100.00;103981.06;5017180;28;20999;-36
2024/01/09 02:59:43;;;;;;;22.13;21.03;;;;;;;-3.62;100.00;103981.94;5012164;28;20465;-36
2024/01/09 03:02:11;;;;;;;23.57;22.13;;;;;;;-3.61;100.00;103985.38;5016216;28;20485;-36
2024/01/09 03:04:40;;;;;;;22.80;21.70;;;;;;;-3.61;100.00;103983.63;5013032;28;20483;-39
2024/01/09 03:07:07;;;;;;;22.80;21.50;;;;;;;-3.67;100.00;103975.06;5013629;28;20828;-36
2024/01/09 03:09:37;;;;;;;24.77;23.10;;;;;;;-3.62;100.00;103981.06;5011055;28;20488;-36
2024/01/09 03:12:05;;;;;;;22.13;21.03;;;;;;;-3.60;100.00;103977.53;5016155;28;20429;-37
2024/01/09 03:14:36;;;;;;;22.97;21.87;;;;;;;-3.60;100.00;103980.16;5012256;28;20491;-36
2024/01/09 03:17:05;;;;;;;24.20;22.67;;;;;;;-3.61;100.00;103977.56;5014425;28;20464;-37
2024/01/09 03:19:32;;;;;;;23.50;22.20;;;;;;;-3.66;100.00;103971.56;5011634;28;20835;-37
2024/01/09 03:22:01;;;;;;;26.53;24.60;;;;;;;-3.71;100.00;103978.63;5013747;28;20476;-38
2024/01/09 03:24:29;;;;;;;25.23;23.33;;;;;;;-3.75;100.00;103972.59;5013431;28;20946;-36
2024/01/09 03:26:57;;;;;;;23.83;22.50;;;;;;;-3.78;100.00;103967.44;5012259;28;20995;-36
2024/01/09 03:29:24;;;;;;;23.50;22.20;;;;;;;-3.77;100.00;103969.16;5013104;28;20461;-36
2024/01/09 03:31:52;;;;;;;22.77;21.57;;;;;;;-3.76;100.00;103960.44;5008374;28;20433;-36
2024/01/09 03:34:20;;;;;;;23.50;21.93;;;;;;;-3.75;100.00;103959.56;5011320;28;20519;-36
2024/01/09 03:36:48;;;;;;;30.90;28.90;;;;;;;-3.75;100.00;103958.69;5012625;28;20816;-36
2024/01/09 03:39:17;;;;;;;25.63;23.90;;;;;;;-3.76;100.00;103959.59;5015317;28;20879;-40
2024/01/09 03:41:44;;;;;;;25.00;23.70;;;;;;;-3.78;100.00;103959.59;5015290;28;20472;-36
2024/01/09 03:44:13;;;;;;;25.13;23.77;;;;;;;-3.80;100.00;103957.91;5015379;28;20484;-36
2024/01/09 03:46:41;;;;;;;24.53;23.13;;;;;;;-3.85;100.00;103944.94;5013223;28;20499;-37
2024/01/09 03:49:10;;;;;;;23.93;22.50;;;;;;;-3.86;100.00;103952.81;5012386;28;20461;-38
2024/01/09 03:51:37;;;;;;;24.73;23.23;;;;;;;-3.88;100.00;103945.00;5012369;28;20441;-36
2024/01/09 03:54:05;;;;;;;24.30;22.70;;;;;;;-3.91;100.00;103945.03;4999045;28;20440;-38
2024/01/09 03:56:34;;;;;;;24.67;23.13;;;;;;;-3.93;100.00;103939.88;5015091;28;21165;-39
2024/01/09 03:59:02;;;;;;;24.77;23.03;;;;;;;-3.96;100.00;103937.31;5012644;28;20465;-36
2024/01/09 04:01:29;;;;;;;25.53;23.90;;;;;;;-3.98;100.00;103933.88;5007941;28;20443;-37
2024/01/09 04:03:57;;;;;;;25.07;23.67;;;;;;;-4.00;100.00;103924.34;5017179;28;20473;-36
2024/01/09 04:06:25;;;;;;;24.20;23.00;;;;;;;-4.03;100.00;103930.47;5014879;28;20433;-39
2024/01/09 04:08:54;;;;;;;24.93;23.73;;;;;;;-4.04;100.00;103933.13;5013059;28;21254;-36
2024/01/09 04:11:21;;;;;;;25.13;23.17;;;;;;;-4.07;100.00;103928.81;5014554;28;20532;-42
2024/01/09 04:13:51;;;;;;;23.67;22.47;;;;;;;-4.09;100.00;103935.78;5012528;28;20437;-36
2024/01/09 04:16:19;;;;;;;23.77;22.57;;;;;;;-4.13;100.00;103933.25;5011778;28;20440;-36
2024/01/09 04:18:47;;;;;;;25.27;23.77;;;;;;;-4.15;100.00;103930.66;5013201;28;20457;-36
2024/01/09 04:21:15;;;;;;;24.77;23.33;;;;;;;-4.17;100.00;103926.38;5013769;28;20618;-37
2024/01/09 04:23:42;;;;;;;24.03;22.73;;;;;;;-4.20;100.00;103924.69;5015109;28;20468;-37
2024/01/09 04:26:10;;;;;;;24.33;23.00;;;;;;;-4.22;100.00;103931.69;4999646;28;20449;-37
2024/01/09 04:28:38;;;;;;;25.80;23.87;;;;;;;-4.21;100.00;103932.53;4990541;28;20536;-39
2024/01/09 04:31:07;;;;;;;26.23;24.23;;;;;;;-4.24;100.00;103930.81;4993517;28;20430;-36
2024/01/09 04:33:35;;;;;;;23.47;22.17;;;;;;;-4.21;100.00;103935.16;5003134;28;20459;-37
2024/01/09 04:36:04;;;;;;;23.63;22.33;;;;;;;-4.19;100.00;103930.75;5012676;28;20429;-36
2024/01/09 04:38:32;;;;;;;25.33;23.80;;;;;;;-4.21;100.00;103935.97;4992255;28;20853;-38
2024/01/09 04:41:00;;;;;;;23.80;22.40;;;;;;;-4.24;100.00;103940.41;5000299;28;20495;-36
2024/01/09 04:43:27;;;;;;;24.87;23.27;;;;;;;-4.28;100.00;103936.97;5012237;28;20508;-36
2024/01/09 04:45:55;;;;;;;24.10;22.80;;;;;;;-4.24;100.00;103933.41;5011061;28;20443;-36
2024/01/09 04:48:25;;;;;;;26.03;24.43;;;;;;;-4.20;100.00;103934.25;5006140;28;20466;-39
2024/01/09 04:50:53;;;;;;;25.60;23.90;;;;;;;-4.20;100.00;103937.72;5010108;28;20428;-38
2024/01/09 04:53:21;;;;;;;23.57;22.27;;;;;;;-4.21;100.00;103938.59;5010062;28;20432;-37
2024/01/09 04:55:49;;;;;;;24.40;22.67;;;;;;;-4.22;100.00;103934.28;5006817;28;20957;-36
2024/01/09 04:58:17;;;;;;;23.80;22.40;;;;;;;-4.21;100.00;103945.56;5013014;28;20465;-36
2024/01/09 05:00:44;;;;;;;23.83;22.53;;;;;;;-4.23;100.00;103940.38;5006349;28;20457;-36
2024/01/09 05:03:12;;;;;;;24.23;22.73;;;;;;;-4.23;100.00;103942.97;4999866;28;20573;-39
2024/01/09 05:05:42;;;;;;;23.87;22.43;;;;;;;-4.24;100.00;103940.41;5011751;28;20457;-39
2024/01/09 05:08:10;;;;;;;24.13;22.53;;;;;;;-4.28;100.00;103944.78;5011057;28;20526;-36
2024/01/09 05:10:37;;;;;;;24.70;23.30;;;;;;;-4.31;100.00;103947.44;4997052;28;20426;-36
2024/01/09 05:13:06;;;;;;;26.20;24.13;;;;;;;-4.30;100.00;103953.53;5002167;28;20466;-37
2024/01/09 05:15:34;;;;;;;25.30;23.80;;;;;;;-4.33;100.00;103943.97;5001343;28;20446;-36
2024/01/09 05:18:01;;;;;;;26.53;25.07;;;;;;;-4.30;100.00;103941.31;4989919;28;20470;-37
2024/01/09 05:20:29;;;;;;;27.30;25.80;;;;;;;-4.30;100.00;103946.53;5008675;28;20473;-37
2024/01/09 05:22:58;;;;;;;24.63;23.30;;;;;;;-4.34;100.00;103950.09;4992760;28;20485;-36
2024/01/09 05:25:26;;;;;;;27.43;25.53;;;;;;;-4.39;100.00;103946.69;5006434;28;20439;-36
2024/01/09 05:27:54;;;;;;;27.93;26.13;;;;;;;-4.42;100.00;103938.06;5005710;28;20491;-39
2024/01/09 05:30:21;;;;;;;26.87;24.83;;;;;;;-4.44;100.00;103938.09;5009557;28;20433;-41
2024/01/09 05:32:49;;;;;;;26.97;25.30;;;;;;;-4.48;100.00;103944.25;5000457;28;20522;-41
2024/01/09 05:35:17;;;;;;;25.83;24.23;;;;;;;-4.52;100.00;103939.94;5001874;28;20443;-37
2024/01/09 05:37:46;;;;;;;26.40;24.80;;;;;;;-4.54;100.00;103944.31;5011305;28;20984;-39
2024/01/09 05:40:17;;;;;;;26.63;25.03;;;;;;;-4.55;100.00;103955.63;5015794;28;20509;-37
2024/01/09 05:42:44;;;;;;;25.60;24.00;;;;;;;-4.60;100.00;103953.06;5005262;28;20436;-36
2024/01/09 05:45:12;;;;;;;27.40;25.50;;;;;;;-4.62;100.00;103954.84;5006548;28;20449;-40
2024/01/09 05:47:40;;;;;;;26.83;25.10;;;;;;;-4.65;100.00;103952.28;5010501;28;20460;-37
2024/01/09 05:50:10;;;;;;;25.60;24.20;;;;;;;-4.63;100.00;103957.47;5004506;28;20436;-36
2024/01/09 05:52:39;;;;;;;27.20;25.43;;;;;;;-4.63;100.00;103955.72;4996737;28;20895;-37
2024/01/09 05:55:07;;;;;;;27.90;25.90;;;;;;;-4.62;100.00;103961.78;4997621;28;20465;-37
2024/01/09 05:57:36;;;;;;;26.07;24.40;;;;;;;-4.65;100.00;103964.44;5010170;28;20546;-36
2024/01/09 06:00:05;;;;;;;30.00;27.80;;;;;;;-4.67;100.00;103961.84;5013928;28;20433;-39
2024/01/09 06:02:33;;;;;;;28.20;26.10;;;;;;;-4.68;100.00;103967.06;5001963;28;20947;-37
2024/01/09 06:05:01;;;;;;;28.50;26.40;;;;;;;-4.72;100.00;103963.63;4995627;28;20567;-36
2024/01/09 06:07:28;;;;;;;27.20;25.20;;;;;;;-4.78;100.00;103968.09;4998894;28;21048;-39
2024/01/09 06:09:56;;;;;;;29.50;27.30;;;;;;;-4.84;100.00;103971.63;5000451;28;20533;-38
2024/01/09 06:12:24;;;;;;;28.90;27.00;;;;;;;-4.91;100.00;103962.16;5007944;28;20613;-36
2024/01/09 06:14:53;;;;;;;31.40;28.90;;;;;;;-4.94;100.00;103967.41;4989003;28;20970;-39
2024/01/09 06:17:21;;;;;;;29.30;27.10;;;;;;;-5.01;100.00;103970.97;5007968;28;20453;-37
2024/01/09 06:19:49;;;;;;;27.57;25.57;;;;;;;-5.08;100.00;103962.34;4996020;28;20511;-37
2024/01/09 06:22:17;;;;;;;28.00;26.20;;;;;;;-5.13;100.00;103961.56;5004540;28;20439;-36
2024/01/09 06:24:45;;;;;;;29.00;26.80;;;;;;;-5.16;100.00;103958.13;5013198;28;20837;-37
2024/01/09 06:27:13;;;;;;;27.33;25.63;;;;;;;-5.18;100.00;103959.91;5001226;28;20450;-37
2024/01/09 06:29:40;;;;;;;28.47;26.43;;;;;;;-5.23;100.00;103965.16;4997789;28;20461;-36
2024/01/09 06:32:09;;;;;;;28.37;26.27;;;;;;;-5.31;100.00;103955.69;5006548;28;20429;-36
2024/01/09 06:34:37;;;;;;;26.93;25.33;;;;;;;-5.37;100.00;103958.34;5013265;28;20429;-36
2024/01/09 06:37:05;;;;;;;29.00;26.90;;;;;;;-5.45;100.00;103955.84;4995510;28;20500;-37
2024/01/09 06:39:33;;;;;;;39.83;35.63;;;;;;;-5.50;100.00;103962.00;5005557;28;20462;-37
2024/01/09 06:42:00;;;;;;;35.73;32.50;;;;;;;-5.56;100.00;103962.03;5015788;28;20516;-36
2024/01/09 06:44:28;;;;;;;29.17;27.07;;;;;;;-5.64;100.00;103962.09;5011909;28;21226;-36
2024/01/09 06:46:56;;;;;;;29.73;27.43;;;;;;;-5.68;100.00;103966.50;5005505;28;20471;-36
2024/01/09 06:49:25;;;;;;;30.63;28.43;;;;;;;-5.66;100.00;103966.47;5014620;28;20515;-39
2024/01/09 06:51:53;;;;;;;27.73;26.20;;;;;;;-5.63;100.00;103967.31;5013381;28;20439;-37
2024/01/09 06:54:21;;;;;;;32.40;29.93;;;;;;;-5.59;100.00;103970.75;4998934;28;20430;-36
2024/01/09 06:56:49;;;;;;;32.63;30.00;;;;;;;-5.58;100.00;103963.81;5012434;28;20817;-38
2024/01/09 06:59:17;;;;;;;32.80;30.20;;;;;;;-5.54;100.00;103965.47;5004216;28;20462;-38
2024/01/09 07:01:46;;;;;;;30.60;28.40;;;;;;;-5.55;100.00;103963.78;5004114;28;20434;-37
2024/01/09 07:04:14;;;;;;;29.57;27.67;;;;;;;-5.62;100.00;103963.84;5007462;28;20534;-37
2024/01/09 07:06:44;;;;;;;30.17;28.00;;;;;;;-5.68;100.00;103960.44;4991802;28;20828;-37
2024/01/09 07:09:11;;;;;;;29.60;27.53;;;;;;;-5.74;100.00;103963.09;4995260;28;20540;-37
2024/01/09 07:11:39;;;;;;;27.43;25.83;;;;;;;-5.79;100.00;103962.25;4999473;28;20429;-40
2024/01/09 07:14:09;;;;;;;29.80;27.80;;;;;;;-5.86;100.00;103961.50;5005776;28;20517;-38
2024/01/09 07:16:38;;;;;;;32.87;29.90;;;;;;;-5.92;100.00;103964.13;5009083;28;20591;-37
2024/01/09 07:19:06;;;;;;;30.33;27.90;;;;;;;-5.96;100.00;103967.63;5012417;28;20454;-36
2024/01/09 07:21:34;;;;;;;29.20;27.10;;;;;;;-5.99;100.00;103962.44;5006045;28;20465;-37
2024/01/09 07:24:03;;;;;;;29.20;27.40;;;;;;;-6.02;100.00;103964.22;5014138;28;20469;-39
2024/01/09 07:26:32;;;;;;;29.20;27.10;;;;;;;-6.05;100.00;103966.84;5016325;28;20437;-36
2024/01/09 07:29:00;;;;;;;29.00;27.20;;;;;;;-6.06;100.00;103968.56;5005028;28;20479;-40
2024/01/09 07:31:28;;;;;;;30.23;28.37;;;;;;;-6.07;100.00;103978.97;5014957;28;20461;-37
2024/01/09 07:33:56;;;;;;;29.57;27.63;;;;;;;-6.08;100.00;103972.91;5017453;28;20429;-37
2024/01/09 07:36:24;;;;;;;40.93;36.47;;;;;;;-6.08;100.00;103977.25;5014162;28;20445;-38
2024/01/09 07:38:52;;;;;;;54.03;42.90;;;;;;;-6.08;100.00;103972.06;5015444;28;20465;-42
2024/01/09 07:41:22;;;;;;;37.67;33.63;;;;;;;-6.08;100.00;103979.84;5014493;28;20568;-37
2024/01/09 07:43:50;;;;;;;31.73;29.20;;;;;;;-6.09;100.00;103978.97;5006419;28;20456;-36
2024/01/09 07:46:18;;;;;;;32.10;29.67;;;;;;;-6.07;100.00;103976.38;5005305;28;20480;-39
2024/01/09 07:48:46;;;;;;;28.57;26.47;;;;;;;-6.05;100.00;103974.63;5009461;28;20589;-39
2024/01/09 07:51:14;;;;;;;27.37;25.63;;;;;;;-6.03;100.00;103981.53;5002653;28;21088;-37
2024/01/09 07:53:41;;;;;;;27.90;26.00;;;;;;;-6.01;100.00;103981.53;4999678;28;20440;-36
2024/01/09 07:56:16;;;;;;;30.50;27.90;;;;;;;-5.99;100.00;103974.56;5003769;28;20481;-37
2024/01/09 07:58:46;;;;;;;29.67;27.43;;;;;;;-5.97;100.00;103978.88;4999190;28;20969;-36
2024/01/09 08:01:14;;;;;;;27.67;25.77;;;;;;;-5.93;100.00;103979.72;4996868;28;20445;-36
2024/01/09 08:03:42;;;;;;;29.20;27.20;;;;;;;-5.90;100.00;103974.50;5005443;28;20468;-37
2024/01/09 08:06:13;;;;;;;28.40;26.30;;;;;;;-5.87;100.00;103970.16;4993318;28;20477;-37
2024/01/09 08:08:41;;;;;;;29.20;26.87;;;;;;;-5.83;100.00;103969.22;4994123;28;20481;-37
2024/01/09 08:11:09;;;;;;;27.13;25.30;;;;;;;-5.80;100.00;103970.94;4998897;28;20869;-36
2024/01/09 08:13:37;;;;;;;29.47;26.80;;;;;;;-5.74;100.00;103970.88;5009915;28;20436;-36
2024/01/09 08:16:08;;;;;;;28.30;25.90;;;;;;;-5.70;100.00;103973.41;5008576;28;20433;-36
2024/01/09 08:18:37;;;;;;;30.43;27.63;;;;;;;-5.68;100.00;103982.09;5004400;28;20824;-37
2024/01/09 08:21:05;;;;;;;30.43;27.83;;;;;;;-5.66;100.00;103976.88;5012445;28;20448;-38
2024/01/09 08:23:33;;;;;;;30.73;28.17;;;;;;;-5.62;100.00;103976.84;5002124;28;20438;-36
2024/01/09 08:26:02;;;;;;;31.93;29.20;;;;;;;-5.55;100.00;103982.81;4998851;28;20559;-39
2024/01/09 08:28:30;;;;;;;29.43;27.53;;;;;;;-5.50;100.00;103985.38;5002172;28;20814;-36
2024/01/09 08:30:57;;;;;;;30.43;28.00;;;;;;;-5.45;100.00;103992.25;5000808;28;20946;-37
2024/01/09 08:33:28;;;;;;;30.50;27.90;;;;;;;-5.38;100.00;103980.94;5000003;28;20434;-41
2024/01/09 08:35:59;;;;;;;31.60;29.60;;;;;;;-5.22;100.00;103992.88;5011567;28;20425;-40
2024/01/09 08:38:27;;;;;;;34.47;31.93;;;;;;;-5.06;100.00;103994.44;5002239;28;20490;-38
2024/01/09 08:40:56;;;;;;;35.20;32.00;;;;;;;-4.90;100.00;103989.06;4996568;28;20493;-36
2024/01/09 08:43:24;;;;;;;35.50;32.70;;;;;;;-4.76;100.00;103995.81;5004606;28;20457;-36
2024/01/09 08:45:51;;;;;;;37.27;34.17;;;;;;;-4.63;100.00;103996.53;4998303;28;20484;-37
2024/01/09 08:48:23;;;;;;;37.13;33.80;;;;;;;-4.50;100.00;103990.25;5008329;28;20988;-40
2024/01/09 08:50:53;;;;;;;35.07;32.10;;;;;;;-4.41;100.00;103999.69;5005987;28;20440;-37
2024/01/09 08:53:21;;;;;;;38.70;35.27;;;;;;;-4.32;100.00;103987.41;5003325;28;20438;-38
2024/01/09 08:55:49;;;;;;;37.20;33.37;;;;;;;-4.24;100.00;104002.94;4991936;28;20445;-36
2024/01/09 08:58:16;;;;;;;36.93;33.80;;;;;;;-4.18;100.00;104001.06;4998531;28;20511;-37
2024/01/09 09:00:44;;;;;;;37.17;33.97;;;;;;;-4.08;100.00;103997.47;5001450;28;20437;-38
2024/01/09 09:03:12;;;;;;;36.77;33.63;;;;;;;-4.00;100.00;104000.81;5004587;28;20821;-36
2024/01/09 09:05:40;;;;;;;37.47;34.40;;;;;;;-3.91;100.00;103995.44;5012486;28;20479;-37
2024/01/09 09:08:11;;;;;;;37.63;34.37;;;;;;;-3.78;100.00;104005.69;5004885;28;20457;-39
2024/01/09 09:10:39;;;;;;;36.73;33.70;;;;;;;-3.69;100.00;104000.31;5002579;28;20504;-38
2024/01/09 09:13:07;;;;;;;37.03;34.07;;;;;;;-3.60;100.00;104002.75;5009969;28;20505;-37
2024/01/09 09:15:35;;;;;;;37.93;34.83;;;;;;;-3.55;100.00;103999.19;5000864;28;20787;-36
2024/01/09 09:18:03;;;;;;;38.73;35.60;;;;;;;-3.49;100.00;104000.81;5005415;28;20806;-37
2024/01/09 09:20:31;;;;;;;40.10;36.00;;;;;;;-3.50;100.00;104001.72;5013085;28;20472;-36
2024/01/09 09:22:59;;;;;;;37.87;34.43;;;;;;;-3.38;100.00;104004.13;5003661;28;20606;-38
2024/01/09 09:25:30;;;;;;;35.73;32.70;;;;;;;-3.25;100.00;104002.97;5004241;28;20588;-36
2024/01/09 09:27:58;;;;;;;38.23;34.90;;;;;;;-3.11;100.00;104007.97;5001634;28;20548;-36
2024/01/09 09:30:28;;;;;;;37.00;33.43;;;;;;;-2.98;100.00;104002.47;5011528;28;20513;-40
2024/01/09 09:32:58;;;;;;;35.70;32.57;;;;;;;-3.01;100.00;104004.28;4999886;28;20458;-36
2024/01/09 09:35:26;;;;;;;36.13;32.93;;;;;;;-2.94;100.00;104001.53;4999417;28;20433;-40
2024/01/09 09:37:55;;;;;;;36.20;33.00;;;;;;;-2.84;100.00;103995.19;5004765;28;21003;-38
2024/01/09 09:40:23;;;;;;;33.73;31.13;;;;;;;-2.70;100.00;104009.75;5003890;28;20785;-36
2024/01/09 09:42:54;;;;;;;34.43;31.70;;;;;;;-2.58;100.00;104006.88;4998115;28;20540;-36
2024/01/09 09:45:24;;;;;;;33.40;30.30;;;;;;;-2.48;100.00;104008.41;4992361;28;20811;-37
2024/01/09 09:47:54;;;;;;;33.60;31.10;;;;;;;-2.36;100.00;104008.97;4989879;28;20549;-40
2024/01/09 09:50:23;;;;;;;35.27;32.40;;;;;;;-2.21;100.00;104001.72;5006837;28;20448;-36
2024/01/09 09:52:53;;;;;;;36.23;33.43;;;;;;;-2.16;100.00;104003.31;4994177;28;20441;-38
2024/01/09 09:55:21;;;;;;;36.00;33.10;;;;;;;-2.13;100.00;103998.00;4998817;28;20492;-38
2024/01/09 09:57:49;;;;;;;34.03;31.37;;;;;;;-2.05;100.00;104003.06;5006857;28;20537;-38
2024/01/09 10:00:19;;;;;;;34.93;32.23;;;;;;;-1.97;100.00;103999.34;4991628;28;20441;-37
2024/01/09 10:02:49;;;;;;;31.23;28.80;;;;;;;-1.91;100.00;103998.38;5009029;28;20881;-37
2024/01/09 10:05:20;;;;;;;32.63;30.07;;;;;;;-1.77;100.00;103989.28;5010410;28;20503;-38
2024/01/09 10:07:49;;;;;;;34.27;31.63;;;;;;;-1.69;100.00;103982.09;5001499;28;20540;-42
2024/01/09 10:10:20;;;;;;;33.73;31.00;;;;;;;-1.58;100.00;103988.81;5012442;28;20515;-37
2024/01/09 10:12:49;;;;;;;36.53;33.67;;;;;;;-1.55;100.00;103983.50;5003587;28;20807;-37
2024/01/09 10:15:18;;;;;;;32.53;30.10;;;;;;;-1.72;100.00;103984.78;5013832;28;20497;-36
2024/01/09 10:17:46;;;;;;;33.10;30.67;;;;;;;-1.85;100.00;103980.75;5012955;28;20449;-37
2024/01/09 10:20:14;;;;;;;31.97;29.50;;;;;;;-1.76;100.00;103983.13;4999614;28;20434;-36
2024/01/09 10:22:42;;;;;;;33.20;30.70;;;;;;;-1.71;100.00;103973.44;5012259;28;20511;-39
2024/01/09 10:25:12;;;;;;;32.83;30.23;;;;;;;-1.77;100.00;103967.50;5007052;28;20952;-36
2024/01/09 10:27:41;;;;;;;30.10;28.00;;;;;;;-1.91;100.00;103965.22;5013020;28;20515;-38
2024/01/09 10:30:11;;;;;;;31.43;28.97;;;;;;;-1.80;100.00;103978.91;4991329;28;20452;-39
2024/01/09 10:32:42;;;;;;;31.63;29.13;;;;;;;-1.55;100.00;103975.66;4993627;28;20822;-38
2024/01/09 10:35:14;;;;;;;33.10;30.50;;;;;;;-1.30;100.00;103968.84;5008306;28;20746;-38
2024/01/09 10:37:43;;;;;;;32.13;29.83;;;;;;;-1.19;100.00;103970.28;5014166;28;20445;-38
2024/01/09 10:40:13;;;;;;;33.40;30.60;;;;;;;-1.07;100.00;103963.84;4998819;28;20520;-38
2024/01/09 10:42:47;;;;;;;31.97;29.67;;;;;;;-0.93;100.00;103948.59;5003251;28;20824;-39
2024/01/09 10:45:16;;;;;;;30.80;28.67;;;;;;;-0.79;100.00;103945.56;4999881;28;20438;-41
2024/01/09 10:47:45;;;;;;;32.90;30.33;;;;;;;-1.04;100.00;103941.94;4993728;28;20490;-38
2024/01/09 10:50:15;;;;;;;33.13;30.63;;;;;;;-0.91;100.00;103940.69;4991738;28;20434;-39
2024/01/09 10:52:44;;;;;;;33.77;31.17;;;;;;;-0.92;100.00;103942.44;5001314;28;20533;-39
2024/01/09 10:55:13;;;;;;;32.73;30.47;;;;;;;-0.69;100.00;103944.41;5008421;28;20444;-39
2024/01/09 10:57:41;;;;;;;31.93;29.57;;;;;;;-0.52;100.00;103938.63;5011725;28;20456;-43
2024/01/09 11:00:11;;;;;;;32.53;30.17;;;;;;;-0.44;100.00;103937.47;5001706;28;20476;-43
2024/01/09 11:02:40;;;;;;;30.23;28.00;;;;;;;-0.30;100.00;103932.66;5005556;28;20964;-40
2024/01/09 11:05:11;;;;;;;31.27;28.97;;;;;;;-0.27;100.00;103922.06;5004295;28;20527;-39
2024/01/09 11:07:39;;;;;;;27.50;25.80;;;;;;;-0.40;100.00;103925.16;5003132;28;20983;-43